Time;durP1;ratioP1;P1;durP2;ratioP2;P2;SDS_P1;SDS_P2;PMS_P1;PMS_P2;Temp;Humidity;BMP_temperature;BMP_pressure;BME280_temperature;BME280_humidity;BME280_pressure;Samples;Min_cycle;Max_cycle;Signal;HPM_P1;HPM_P2
2023/12/16 00:00:01;;;;;;;21.00;4.78;;;9.60;99.90;;;;;;4989665;28;20037;-73
2023/12/16 00:02:26;;;;;;;19.38;4.00;;;9.50;99.90;;;;;;4993629;28;20026;-75
2023/12/16 00:04:52;;;;;;;20.50;4.72;;;9.40;99.90;;;;;;4988055;28;20038;-74
2023/12/16 00:07:18;;;;;;;28.30;5.40;;;9.40;99.90;;;;;;4993791;28;20077;-75
2023/12/16 00:09:43;;;;;;;18.58;4.28;;;9.30;99.90;;;;;;4992692;28;20117;-73
2023/12/16 00:12:09;;;;;;;19.15;4.60;;;9.30;99.90;;;;;;4976557;28;20022;-74
2023/12/16 00:14:38;;;;;;;21.10;4.45;;;9.20;99.90;;;;;;4992410;28;20077;-73
2023/12/16 00:17:04;;;;;;;26.48;5.28;;;9.20;99.90;;;;;;4997946;28;20030;-74
2023/12/16 00:19:30;;;;;;;18.85;4.97;;;9.20;99.90;;;;;;4991616;28;20050;-74
2023/12/16 00:21:56;;;;;;;25.88;4.97;;;9.20;99.90;;;;;;4993454;28;20027;-73
2023/12/16 00:24:21;;;;;;;21.90;5.10;;;9.20;99.90;;;;;;4992713;28;20069;-74
2023/12/16 00:26:47;;;;;;;20.67;4.70;;;9.10;99.90;;;;;;4988120;28;20101;-74
2023/12/16 00:29:13;;;;;;;19.85;4.78;;;9.10;99.90;;;;;;4983140;28;20034;-74
2023/12/16 00:31:39;;;;;;;25.15;5.03;;;9.10;99.90;;;;;;4991514;28;20065;-74
2023/12/16 00:34:05;;;;;;;21.08;4.65;;;9.00;99.90;;;;;;4999712;28;20034;-74
2023/12/16 00:36:30;;;;;;;24.65;5.13;;;9.00;99.90;;;;;;4992154;28;20170;-74
2023/12/16 00:38:58;;;;;;;25.13;5.10;;;9.00;99.90;;;;;;4992664;28;20125;-75
2023/12/16 00:41:24;;;;;;;26.38;4.70;;;9.00;99.90;;;;;;4992584;28;20089;-74
2023/12/16 00:43:49;;;;;;;27.23;5.20;;;8.90;99.90;;;;;;4993247;28;20034;-74
2023/12/16 00:46:15;;;;;;;24.45;4.93;;;8.90;99.90;;;;;;4992868;28;20066;-73
2023/12/16 00:48:41;;;;;;;22.23;4.78;;;8.90;99.90;;;;;;4993321;28;20455;-74
2023/12/16 00:51:06;;;;;;;24.83;5.35;;;8.90;99.90;;;;;;4990282;28;20445;-73
2023/12/16 00:53:32;;;;;;;30.48;5.18;;;8.80;99.90;;;;;;4987376;28;20030;-74
2023/12/16 00:55:57;;;;;;;26.05;5.07;;;8.80;99.90;;;;;;4991730;28;20041;-73
2023/12/16 00:58:23;;;;;;;31.02;5.93;;;8.80;99.90;;;;;;4992740;28;20033;-75
2023/12/16 01:00:49;;;;;;;22.23;4.90;;;8.80;99.90;;;;;;4987413;28;20105;-74
2023/12/16 01:03:15;;;;;;;24.45;5.75;;;8.70;99.90;;;;;;4991152;28;20026;-74
2023/12/16 01:05:40;;;;;;;25.17;5.30;;;8.70;99.90;;;;;;4988992;28;20034;-74
2023/12/16 01:08:06;;;;;;;24.63;5.75;;;8.70;99.90;;;;;;4991648;28;20077;-74
2023/12/16 01:10:31;;;;;;;21.80;5.50;;;8.70;99.90;;;;;;4991942;28;20774;-75
2023/12/16 01:12:57;;;;;;;26.85;6.32;;;8.70;99.90;;;;;;4991099;28;20478;-74
2023/12/16 01:15:23;;;;;;;25.50;5.30;;;8.70;99.90;;;;;;4992578;28;20529;-75
2023/12/16 01:17:48;;;;;;;30.83;6.15;;;8.70;99.90;;;;;;4973600;28;20464;-75
2023/12/16 01:20:14;;;;;;;22.77;5.15;;;8.70;99.90;;;;;;4988441;28;20034;-74
2023/12/16 01:22:39;;;;;;;31.92;5.90;;;8.60;99.90;;;;;;4989190;28;20023;-73
2023/12/16 01:25:05;;;;;;;29.85;6.03;;;8.60;99.90;;;;;;4988225;28;20125;-74
2023/12/16 01:27:31;;;;;;;29.52;5.78;;;8.60;99.90;;;;;;4989427;28;20026;-74
2023/12/16 01:29:57;;;;;;;26.80;5.72;;;8.60;99.90;;;;;;4989436;28;20121;-73
2023/12/16 01:32:23;;;;;;;23.92;5.65;;;8.50;99.90;;;;;;4991099;28;20118;-73
2023/12/16 01:34:48;;;;;;;24.15;5.38;;;8.60;99.90;;;;;;4992112;28;20042;-74
2023/12/16 01:37:14;;;;;;;25.40;6.13;;;8.60;99.90;;;;;;4975431;28;20458;-72
2023/12/16 01:39:39;;;;;;;26.95;5.97;;;8.60;99.90;;;;;;4990151;28;20486;-75
2023/12/16 01:42:05;;;;;;;30.30;6.75;;;8.60;99.90;;;;;;4993460;28;20034;-73
2023/12/16 01:44:32;;;;;;;29.00;6.53;;;8.60;99.90;;;;;;4992400;28;20034;-74
2023/12/16 01:46:59;;;;;;;24.17;6.40;;;8.70;99.90;;;;;;4991712;28;20058;-74
2023/12/16 01:49:25;;;;;;;31.35;6.45;;;8.70;99.90;;;;;;4989365;28;20035;-73
2023/12/16 01:51:51;;;;;;;28.20;6.20;;;8.60;99.90;;;;;;4992627;28;20022;-73
2023/12/16 01:54:17;;;;;;;28.70;6.20;;;8.70;99.90;;;;;;4993260;28;20018;-74
2023/12/16 01:56:43;;;;;;;26.88;6.70;;;8.70;99.90;;;;;;4991579;28;20481;-73
2023/12/16 01:59:09;;;;;;;26.92;6.10;;;8.70;99.90;;;;;;4991817;28;20030;-74
2023/12/16 02:01:36;;;;;;;26.35;6.35;;;8.80;99.90;;;;;;4982683;28;20050;-74
2023/12/16 02:04:01;;;;;;;28.38;5.75;;;8.80;99.90;;;;;;4995755;28;20022;-73
2023/12/16 02:06:27;;;;;;;26.35;6.47;;;8.80;99.90;;;;;;4994314;28;20400;-73
2023/12/16 02:08:53;;;;;;;28.08;6.32;;;8.80;99.90;;;;;;4994498;28;20030;-73
2023/12/16 02:11:18;;;;;;;29.27;6.18;;;8.80;99.90;;;;;;4990792;28;20085;-73
2023/12/16 02:13:44;;;;;;;31.05;6.25;;;8.80;99.90;;;;;;4987604;28;20031;-74
2023/12/16 02:16:12;;;;;;;25.65;6.18;;;8.80;99.90;;;;;;4993998;28;20038;-73
2023/12/16 02:18:38;;;;;;;25.30;6.22;;;8.80;99.90;;;;;;4995631;28;20074;-72
2023/12/16 02:21:04;;;;;;;29.95;6.05;;;8.90;99.90;;;;;;4995679;28;20066;-72
2023/12/16 02:23:29;;;;;;;22.20;6.78;;;8.90;99.90;;;;;;4995769;28;20029;-72
2023/12/16 02:25:55;;;;;;;30.88;7.32;;;8.90;99.90;;;;;;4992329;28;20046;-73
2023/12/16 02:28:21;;;;;;;32.47;7.28;;;8.90;99.90;;;;;;4995522;28;20451;-73
2023/12/16 02:30:46;;;;;;;29.77;6.60;;;9.00;99.90;;;;;;4991325;28;20023;-74
2023/12/16 02:33:12;;;;;;;30.67;7.10;;;8.90;99.90;;;;;;4990967;28;20454;-73
2023/12/16 02:35:38;;;;;;;30.02;7.07;;;9.00;99.90;;;;;;4992658;28;20023;-74
2023/12/16 02:38:03;;;;;;;35.55;7.57;;;9.00;99.90;;;;;;4995561;28;20030;-73
2023/12/16 02:40:29;;;;;;;30.40;7.60;;;9.00;99.90;;;;;;4995511;28;20034;-74
2023/12/16 02:42:55;;;;;;;23.25;6.72;;;9.00;99.90;;;;;;4993021;28;20030;-73
2023/12/16 02:45:20;;;;;;;30.73;7.50;;;9.00;99.90;;;;;;4995529;28;20072;-73
2023/12/16 02:47:46;;;;;;;28.80;6.55;;;9.00;99.90;;;;;;4995122;28;20102;-73
2023/12/16 02:50:11;;;;;;;33.30;7.47;;;9.10;99.90;;;;;;4990857;28;20121;-74
2023/12/16 02:52:37;;;;;;;31.20;6.82;;;9.00;99.90;;;;;;4988350;28;20157;-74
2023/12/16 02:55:03;;;;;;;32.10;8.07;;;9.10;99.90;;;;;;4995066;28;20433;-73
2023/12/16 02:57:28;;;;;;;30.20;7.55;;;9.00;99.90;;;;;;4994770;28;20030;-73
2023/12/16 02:59:54;;;;;;;31.45;7.28;;;9.10;99.90;;;;;;4994313;28;20039;-76
2023/12/16 03:02:19;;;;;;;30.65;7.63;;;9.00;99.90;;;;;;4995399;28;20045;-75
2023/12/16 03:04:45;;;;;;;33.60;7.38;;;9.00;99.90;;;;;;4994899;28;20048;-76
2023/12/16 03:07:11;;;;;;;28.67;7.38;;;9.00;99.90;;;;;;4995298;28;20054;-75
2023/12/16 03:09:36;;;;;;;34.08;8.27;;;9.00;99.90;;;;;;4984663;28;20055;-76
2023/12/16 03:12:04;;;;;;;39.85;8.77;;;9.00;99.90;;;;;;4994671;28;20058;-73
2023/12/16 03:14:29;;;;;;;31.15;7.25;;;8.90;99.90;;;;;;4993843;28;20048;-73
2023/12/16 03:16:55;;;;;;;30.08;7.80;;;8.90;99.90;;;;;;4995115;28;20097;-73
2023/12/16 03:19:20;;;;;;;38.90;8.10;;;8.90;99.90;;;;;;4993866;28;20050;-74
2023/12/16 03:21:46;;;;;;;35.20;8.18;;;8.90;99.90;;;;;;4994766;28;20097;-74
2023/12/16 03:24:12;;;;;;;37.85;8.90;;;8.90;99.90;;;;;;4993788;28;20077;-74
2023/12/16 03:26:38;;;;;;;38.47;9.15;;;8.80;99.90;;;;;;4989552;28;20042;-74
2023/12/16 03:29:03;;;;;;;32.90;7.28;;;8.80;99.90;;;;;;4993956;28;20037;-73
2023/12/16 03:31:29;;;;;;;36.50;8.27;;;8.80;99.90;;;;;;4989925;28;20820;-73
2023/12/16 03:33:54;;;;;;;35.78;8.60;;;8.80;99.90;;;;;;4994359;28;20057;-74
2023/12/16 03:36:20;;;;;;;39.25;8.45;;;8.80;99.90;;;;;;4991996;28;20026;-75
2023/12/16 03:38:46;;;;;;;37.08;8.93;;;8.80;99.90;;;;;;4994213;28;20419;-74
2023/12/16 03:41:12;;;;;;;36.17;8.60;;;8.80;99.90;;;;;;4989685;28;20493;-74
2023/12/16 03:43:38;;;;;;;39.78;8.93;;;8.80;99.90;;;;;;4993038;28;20035;-74
2023/12/16 03:46:04;;;;;;;38.05;8.27;;;8.80;99.90;;;;;;4994212;28;20061;-75
2023/12/16 03:48:29;;;;;;;34.47;7.68;;;8.80;99.90;;;;;;4994040;28;20023;-73
2023/12/16 03:50:55;;;;;;;38.35;8.35;;;8.80;99.90;;;;;;4994079;28;20105;-75
2023/12/16 03:53:21;;;;;;;35.85;8.60;;;8.80;99.90;;;;;;4988596;28;20055;-74
2023/12/16 03:55:46;;;;;;;32.83;7.72;;;8.80;99.90;;;;;;4972617;28;20490;-74
2023/12/16 03:58:12;;;;;;;34.78;7.97;;;8.70;99.90;;;;;;4974582;28;20035;-73
2023/12/16 04:00:38;;;;;;;39.58;9.35;;;8.70;99.90;;;;;;4991928;28;20034;-75
2023/12/16 04:03:03;;;;;;;40.08;9.55;;;8.70;99.90;;;;;;4993330;28;20089;-75
2023/12/16 04:05:29;;;;;;;39.45;8.57;;;8.70;99.90;;;;;;4989590;28;20071;-74
2023/12/16 04:07:54;;;;;;;45.08;9.00;;;8.70;99.90;;;;;;4990933;28;20060;-73
2023/12/16 04:10:20;;;;;;;39.95;9.02;;;8.70;99.90;;;;;;4989792;28;20027;-73
2023/12/16 04:12:45;;;;;;;42.22;10.05;;;8.70;99.90;;;;;;4989628;28;20022;-73
2023/12/16 04:15:14;;;;;;;37.45;8.40;;;8.70;99.90;;;;;;4989993;28;20054;-74
2023/12/16 04:17:39;;;;;;;41.28;10.13;;;8.70;99.90;;;;;;4990087;28;20018;-73
2023/12/16 04:20:05;;;;;;;48.60;9.23;;;8.70;99.90;;;;;;4975016;28;20056;-73
2023/12/16 04:22:31;;;;;;;42.13;10.18;;;8.70;99.90;;;;;;4975306;28;20363;-73
2023/12/16 04:25:00;;;;;;;42.83;8.73;;;8.70;99.90;;;;;;4993224;28;20121;-74
2023/12/16 04:27:26;;;;;;;42.80;9.05;;;8.70;99.90;;;;;;4989022;28;20038;-75
2023/12/16 04:29:52;;;;;;;39.30;8.18;;;8.70;99.90;;;;;;4993442;28;20031;-74
2023/12/16 04:32:18;;;;;;;42.10;8.25;;;8.80;99.90;;;;;;4993374;28;20072;-75
2023/12/16 04:34:44;;;;;;;40.40;8.23;;;8.70;99.90;;;;;;4993008;28;20403;-74
2023/12/16 04:37:10;;;;;;;38.72;8.35;;;8.80;99.90;;;;;;4991712;28;20031;-75
2023/12/16 04:39:37;;;;;;;34.75;8.23;;;8.80;99.90;;;;;;4992979;28;20076;-74
2023/12/16 04:42:03;;;;;;;39.80;7.93;;;8.70;99.90;;;;;;4993039;28;20030;-73
2023/12/16 04:44:29;;;;;;;43.88;10.07;;;8.80;99.90;;;;;;4993281;28;20030;-73
2023/12/16 04:46:54;;;;;;;37.80;8.48;;;8.80;99.90;;;;;;4992943;28;20074;-74
2023/12/16 04:49:20;;;;;;;38.97;8.63;;;8.80;99.90;;;;;;4992882;28;20030;-74
2023/12/16 04:51:45;;;;;;;40.67;9.02;;;8.80;99.90;;;;;;4992740;28;20031;-72
2023/12/16 04:54:11;;;;;;;41.45;8.82;;;8.70;99.90;;;;;;4985579;28;20109;-74
2023/12/16 04:56:37;;;;;;;35.50;7.60;;;8.70;99.90;;;;;;4983544;28;20528;-74
2023/12/16 04:59:02;;;;;;;34.58;8.02;;;8.70;99.90;;;;;;4991536;28;20074;-74
2023/12/16 05:01:28;;;;;;;45.55;8.90;;;8.70;99.90;;;;;;4975567;28;20062;-72
2023/12/16 05:03:54;;;;;;;38.97;7.93;;;8.70;99.90;;;;;;4991426;28;20029;-73
2023/12/16 05:06:20;;;;;;;40.08;7.88;;;8.70;99.90;;;;;;4992843;28;20065;-73
2023/12/16 05:08:46;;;;;;;40.10;8.50;;;8.70;99.90;;;;;;4993177;28;20435;-73
2023/12/16 05:11:12;;;;;;;35.38;8.10;;;8.70;99.90;;;;;;4977563;28;20092;-73
2023/12/16 05:13:38;;;;;;;44.50;7.80;;;8.70;99.90;;;;;;4990255;28;20030;-73
2023/12/16 05:16:03;;;;;;;40.85;8.23;;;8.70;99.90;;;;;;4993025;28;20478;-74
2023/12/16 05:18:29;;;;;;;40.83;8.52;;;8.80;99.90;;;;;;4992860;28;20061;-74
2023/12/16 05:20:55;;;;;;;39.33;7.85;;;8.80;99.90;;;;;;4991747;28;20046;-74
2023/12/16 05:23:20;;;;;;;38.67;7.93;;;8.80;99.90;;;;;;4992043;28;20089;-72
2023/12/16 05:25:46;;;;;;;36.55;7.60;;;8.80;99.90;;;;;;4992979;28;20042;-74
2023/12/16 05:28:11;;;;;;;33.95;7.55;;;8.80;99.90;;;;;;4993390;28;20381;-74
2023/12/16 05:30:37;;;;;;;35.97;7.13;;;8.80;99.90;;;;;;4990699;28;20463;-75
2023/12/16 05:33:02;;;;;;;37.72;7.45;;;8.80;99.90;;;;;;4992729;28;20066;-74
2023/12/16 05:35:28;;;;;;;40.25;7.20;;;8.80;99.90;;;;;;4975462;28;20030;-75
2023/12/16 05:37:54;;;;;;;35.97;7.22;;;8.90;99.90;;;;;;4991084;28;20019;-74
2023/12/16 05:40:19;;;;;;;36.72;7.13;;;8.90;99.90;;;;;;4991606;28;20037;-75
2023/12/16 05:42:45;;;;;;;33.25;7.70;;;8.90;99.90;;;;;;4992755;28;20027;-73
2023/12/16 05:45:10;;;;;;;31.65;7.45;;;8.90;99.90;;;;;;4992821;28;20086;-75
2023/12/16 05:47:36;;;;;;;36.10;7.40;;;9.00;99.90;;;;;;4992788;28;20121;-75
2023/12/16 05:50:03;;;;;;;40.88;8.07;;;9.00;99.90;;;;;;4969403;28;20064;-73
2023/12/16 05:52:29;;;;;;;41.00;8.02;;;9.10;99.90;;;;;;4988834;28;20034;-73
2023/12/16 05:54:54;;;;;;;34.42;7.80;;;9.00;99.90;;;;;;4992932;28;20081;-74
2023/12/16 05:57:20;;;;;;;40.63;7.18;;;9.10;99.90;;;;;;4991738;28;20035;-73
2023/12/16 05:59:45;;;;;;;45.33;7.88;;;9.10;99.90;;;;;;4993649;28;20029;-74
2023/12/16 06:02:11;;;;;;;38.67;7.80;;;9.10;99.90;;;;;;4991668;28;20030;-74
2023/12/16 06:04:36;;;;;;;37.72;7.57;;;9.10;99.90;;;;;;4992514;28;20042;-75
2023/12/16 06:07:02;;;;;;;41.45;8.48;;;9.20;99.90;;;;;;4992372;28;20034;-73
2023/12/16 06:09:27;;;;;;;36.45;7.28;;;9.20;99.90;;;;;;4990390;28;20068;-75
2023/12/16 06:11:55;;;;;;;49.40;8.27;;;9.20;99.90;;;;;;4991495;28;20027;-75
2023/12/16 06:14:20;;;;;;;31.33;6.57;;;9.20;99.90;;;;;;4992864;28;20034;-72
2023/12/16 06:16:46;;;;;;;37.95;7.28;;;9.20;99.90;;;;;;4975222;28;20379;-75
2023/12/16 06:19:11;;;;;;;36.25;7.03;;;9.20;99.90;;;;;;4994367;28;20047;-74
2023/12/16 06:21:37;;;;;;;36.10;6.80;;;9.20;99.90;;;;;;4996055;28;20038;-75
2023/12/16 06:24:04;;;;;;;38.95;6.95;;;9.30;99.90;;;;;;4989302;28;20034;-74
2023/12/16 06:26:29;;;;;;;33.53;7.50;;;9.30;99.90;;;;;;4996197;28;20034;-75
2023/12/16 06:28:55;;;;;;;36.30;7.70;;;9.30;99.90;;;;;;4995494;28;20031;-73
2023/12/16 06:31:21;;;;;;;31.80;7.25;;;9.30;99.90;;;;;;4996078;28;20030;-74
2023/12/16 06:33:46;;;;;;;37.70;7.15;;;9.30;99.90;;;;;;4995824;28;20026;-73
2023/12/16 06:36:12;;;;;;;33.42;7.20;;;9.30;99.90;;;;;;4995093;28;20066;-74
2023/12/16 06:38:38;;;;;;;35.20;7.47;;;9.30;99.90;;;;;;4994962;28;20036;-73
2023/12/16 06:41:04;;;;;;;34.45;6.63;;;9.30;99.90;;;;;;4993438;28;20042;-74
2023/12/16 06:43:30;;;;;;;32.83;7.13;;;9.30;99.90;;;;;;4995935;28;20027;-74
2023/12/16 06:45:55;;;;;;;40.13;7.85;;;9.30;99.90;;;;;;4994222;28;20045;-74
2023/12/16 06:48:22;;;;;;;35.38;6.93;;;9.30;99.90;;;;;;4993097;28;20030;-75
2023/12/16 06:50:49;;;;;;;36.70;7.18;;;9.30;99.90;;;;;;4992982;28;20034;-75
2023/12/16 06:53:15;;;;;;;38.85;7.45;;;9.40;99.90;;;;;;4993294;28;20033;-75
2023/12/16 06:55:41;;;;;;;30.90;6.70;;;9.40;99.90;;;;;;4993089;28;20018;-75
2023/12/16 06:58:06;;;;;;;34.10;7.53;;;9.30;99.90;;;;;;4993273;28;20035;-73
2023/12/16 07:00:32;;;;;;;40.88;7.93;;;9.30;99.90;;;;;;4993465;28;20030;-75
2023/12/16 07:02:57;;;;;;;36.35;8.13;;;9.30;99.90;;;;;;4994970;28;20418;-75
2023/12/16 07:05:23;;;;;;;37.72;7.13;;;9.30;99.90;;;;;;4995249;28;20124;-76
2023/12/16 07:07:48;;;;;;;36.97;7.60;;;9.30;99.90;;;;;;4994939;28;21829;-76
2023/12/16 07:10:14;;;;;;;41.38;8.52;;;9.30;99.90;;;;;;4992831;28;20113;-75
2023/12/16 07:12:39;;;;;;;36.70;7.43;;;9.40;99.90;;;;;;4993844;28;20053;-75
2023/12/16 07:15:06;;;;;;;39.55;7.53;;;9.30;99.90;;;;;;4995210;28;20057;-73
2023/12/16 07:17:32;;;;;;;36.28;6.93;;;9.30;99.90;;;;;;4995091;28;20026;-74
2023/12/16 07:19:58;;;;;;;41.35;7.70;;;9.30;99.90;;;;;;4995071;28;20058;-75
2023/12/16 07:22:23;;;;;;;44.50;7.78;;;9.30;99.90;;;;;;4992996;28;20038;-74
2023/12/16 07:24:49;;;;;;;36.90;7.15;;;9.30;99.90;;;;;;4994616;28;20035;-74
2023/12/16 07:27:14;;;;;;;37.53;7.70;;;9.30;99.90;;;;;;4994514;28;20030;-76
2023/12/16 07:29:40;;;;;;;41.28;8.50;;;9.30;99.90;;;;;;4993651;28;20029;-74
2023/12/16 07:32:06;;;;;;;34.80;6.93;;;9.20;99.90;;;;;;4994256;28;20034;-75
2023/12/16 07:34:31;;;;;;;39.70;7.90;;;9.20;99.90;;;;;;4994534;28;20030;-75
2023/12/16 07:36:57;;;;;;;36.63;7.32;;;9.20;99.90;;;;;;4995072;28;20101;-75
2023/12/16 07:39:24;;;;;;;41.08;7.43;;;9.20;99.90;;;;;;4992562;28;20390;-76
2023/12/16 07:41:49;;;;;;;30.30;6.35;;;9.30;99.90;;;;;;4993260;28;20034;-75
2023/12/16 07:44:15;;;;;;;31.77;6.88;;;9.30;99.90;;;;;;4995177;28;20039;-74
2023/12/16 07:46:41;;;;;;;39.42;8.00;;;9.40;99.90;;;;;;4994654;28;20093;-74
2023/12/16 07:49:06;;;;;;;34.30;6.78;;;9.50;99.90;;;;;;4993574;28;20026;-73
2023/12/16 07:51:32;;;;;;;30.85;6.32;;;9.60;99.90;;;;;;4994769;28;20030;-73
2023/12/16 07:53:58;;;;;;;41.30;8.55;;;9.70;99.90;;;;;;4994879;28;20026;-74
2023/12/16 07:56:27;;;;;;;41.00;6.97;;;9.70;99.90;;;;;;4993260;28;20060;-74
2023/12/16 07:58:53;;;;;;;34.75;7.88;;;9.80;99.90;;;;;;4991985;28;20268;-75
2023/12/16 08:01:20;;;;;;;34.70;7.43;;;9.90;99.90;;;;;;4993623;28;20496;-75
2023/12/16 08:03:46;;;;;;;40.38;6.93;;;9.90;99.90;;;;;;4993095;28;20442;-75
2023/12/16 08:06:14;;;;;;;36.00;8.00;;;10.00;99.90;;;;;;4994174;28;20042;-75
2023/12/16 08:08:41;;;;;;;38.03;8.20;;;10.00;99.90;;;;;;4992966;28;20027;-74
2023/12/16 08:11:08;;;;;;;38.67;8.48;;;10.10;99.90;;;;;;4992034;28;20474;-75
2023/12/16 08:13:34;;;;;;;39.75;7.75;;;10.10;99.90;;;;;;4994304;28;20022;-73
2023/12/16 08:16:00;;;;;;;34.92;7.80;;;10.20;99.90;;;;;;4994193;28;20096;-73
2023/12/16 08:18:27;;;;;;;33.58;7.68;;;10.20;99.90;;;;;;4993761;28;20054;-74
2023/12/16 08:20:54;;;;;;;34.90;7.28;;;10.20;99.90;;;;;;4993596;28;20124;-75
2023/12/16 08:23:20;;;;;;;35.00;8.35;;;10.30;99.90;;;;;;4993992;28;20037;-75
2023/12/16 08:25:46;;;;;;;32.33;7.22;;;10.40;99.90;;;;;;4990976;28;20046;-74
2023/12/16 08:28:12;;;;;;;37.17;7.63;;;10.50;99.90;;;;;;4993957;28;20133;-73
2023/12/16 08:30:38;;;;;;;30.02;7.38;;;10.50;99.90;;;;;;4992740;28;20482;-76
2023/12/16 08:33:04;;;;;;;30.77;7.53;;;10.60;99.90;;;;;;4975802;28;20089;-75
2023/12/16 08:35:30;;;;;;;33.83;7.85;;;10.60;99.90;;;;;;4993465;28;20038;-74
2023/12/16 08:37:56;;;;;;;32.95;8.45;;;10.70;99.90;;;;;;4993671;28;20018;-76
2023/12/16 08:40:22;;;;;;;35.83;8.30;;;10.70;99.90;;;;;;4992405;28;20029;-72
2023/12/16 08:42:48;;;;;;;32.67;7.90;;;10.70;99.90;;;;;;4989349;28;20034;-73
2023/12/16 08:45:17;;;;;;;35.33;7.93;;;10.80;99.90;;;;;;4992495;28;20493;-73
2023/12/16 08:47:43;;;;;;;35.60;8.05;;;10.80;99.90;;;;;;4991834;28;20085;-73
2023/12/16 08:50:09;;;;;;;29.60;7.75;;;10.90;99.90;;;;;;4991040;28;20023;-76
2023/12/16 08:52:35;;;;;;;35.92;8.57;;;10.90;99.90;;;;;;4993236;28;20037;-75
2023/12/16 08:55:03;;;;;;;27.85;9.25;;;10.90;99.90;;;;;;4988116;28;20030;-75
2023/12/16 08:57:28;;;;;;;28.33;8.77;;;10.90;99.90;;;;;;4989217;28;20068;-74
2023/12/16 08:59:54;;;;;;;25.42;10.18;;;10.90;99.90;;;;;;4993161;28;20050;-74
2023/12/16 09:02:20;;;;;;;32.15;11.82;;;10.90;99.90;;;;;;4992485;28;20038;-73
2023/12/16 09:04:47;;;;;;;24.42;11.40;;;10.90;99.90;;;;;;4993084;28;20067;-74
2023/12/16 09:07:12;;;;;;;30.67;11.13;;;10.90;99.90;;;;;;4991246;28;20030;-74
2023/12/16 09:09:38;;;;;;;35.42;12.95;;;10.90;99.90;;;;;;4990868;28;20351;-76
2023/12/16 09:12:07;;;;;;;33.63;12.23;;;10.80;99.90;;;;;;4973262;28;20128;-74
2023/12/16 09:14:33;;;;;;;28.50;11.07;;;10.80;99.90;;;;;;4991529;28;20034;-75
2023/12/16 09:17:02;;;;;;;30.15;12.80;;;10.80;99.90;;;;;;4990508;28;20072;-74
2023/12/16 09:19:28;;;;;;;32.08;12.18;;;10.80;99.90;;;;;;4991692;28;20414;-73
2023/12/16 09:22:06;;;;;;;32.30;13.05;;;10.80;99.90;;;;;;4990432;28;20038;-74
2023/12/16 09:24:33;;;;;;;32.83;13.32;;;10.80;99.90;;;;;;5006258;28;20116;-76
2023/12/16 09:27:02;;;;;;;39.47;13.98;;;10.80;99.90;;;;;;4974743;28;20486;-74
2023/12/16 09:29:27;;;;;;;34.75;15.18;;;10.80;99.90;;;;;;4976365;28;20474;-74
2023/12/16 09:31:53;;;;;;;32.05;13.90;;;10.80;99.90;;;;;;4990873;28;20057;-75
2023/12/16 09:34:19;;;;;;;28.08;12.85;;;10.80;99.90;;;;;;4991378;28;20014;-75
2023/12/16 09:36:45;;;;;;;35.08;14.43;;;10.80;99.90;;;;;;4989548;28;20034;-74
2023/12/16 09:39:11;;;;;;;35.22;13.45;;;10.80;99.90;;;;;;4988936;28;20113;-74
2023/12/16 09:41:44;;;;;;;29.05;14.38;;;10.90;99.90;;;;;;4991697;28;20026;-74
2023/12/16 09:44:15;;;;;;;33.95;15.18;;;10.90;99.90;;;;;;4990458;28;20278;-76
2023/12/16 09:46:41;;;;;;;30.42;12.90;;;10.80;99.90;;;;;;4991466;28;20057;-75
2023/12/16 09:49:06;;;;;;;26.88;12.15;;;10.80;99.90;;;;;;4992232;28;20026;-75
2023/12/16 09:51:32;;;;;;;29.98;12.10;;;10.80;99.90;;;;;;4973365;28;20038;-73
2023/12/16 09:53:58;;;;;;;28.05;11.23;;;10.80;99.90;;;;;;5003565;28;20026;-74
2023/12/16 09:56:27;;;;;;;35.80;12.98;;;10.80;99.90;;;;;;5002549;28;20030;-73
2023/12/16 09:58:53;;;;;;;30.85;12.57;;;10.80;99.90;;;;;;5002007;28;20502;-74
2023/12/16 10:01:19;;;;;;;30.40;11.68;;;10.80;99.90;;;;;;5001478;28;20060;-73
2023/12/16 10:03:46;;;;;;;30.42;11.20;;;10.80;99.90;;;;;;4995817;28;20431;-74
2023/12/16 10:06:12;;;;;;;27.85;11.95;;;10.80;99.90;;;;;;4993129;28;21703;-73
2023/12/16 10:08:40;;;;;;;29.60;11.20;;;10.80;99.90;;;;;;4994440;28;20022;-74
2023/12/16 10:11:06;;;;;;;23.95;10.88;;;10.80;99.90;;;;;;4991845;28;20034;-76
2023/12/16 10:13:40;;;;;;;26.25;10.82;;;10.80;99.90;;;;;;4992380;28;20165;-73
2023/12/16 10:16:17;;;;;;;25.08;11.13;;;10.90;99.90;;;;;;4995129;28;20026;-74
2023/12/16 10:18:42;;;;;;;25.20;11.20;;;10.80;99.90;;;;;;4995119;28;20047;-73
2023/12/16 10:21:08;;;;;;;27.02;10.65;;;10.70;99.90;;;;;;4995909;28;20036;-73
2023/12/16 10:23:37;;;;;;;23.88;11.05;;;10.70;99.90;;;;;;4995181;28;20085;-75
2023/12/16 10:26:03;;;;;;;24.27;11.02;;;10.60;99.90;;;;;;4995216;28;20046;-74
2023/12/16 10:28:32;;;;;;;28.33;11.95;;;10.60;99.90;;;;;;4995134;28;20069;-74
2023/12/16 10:30:59;;;;;;;27.13;11.77;;;10.50;99.90;;;;;;4994299;28;20026;-74
2023/12/16 10:33:27;;;;;;;26.52;11.73;;;10.50;99.90;;;;;;4992952;28;20027;-76
2023/12/16 10:35:52;;;;;;;24.27;10.07;;;10.40;99.90;;;;;;4994717;28;20446;-75
2023/12/16 10:38:18;;;;;;;25.00;9.13;;;10.40;99.90;;;;;;4994050;28;20023;-76
2023/12/16 10:40:44;;;;;;;20.23;7.75;;;10.40;99.90;;;;;;4995560;28;20371;-77
2023/12/16 10:43:10;;;;;;;21.02;8.57;;;10.40;99.90;;;;;;4995331;28;20383;-73
2023/12/16 10:45:36;;;;;;;23.13;8.32;;;10.40;99.90;;;;;;4994738;28;20046;-73
2023/12/16 10:48:06;;;;;;;22.95;8.32;;;10.50;99.90;;;;;;4991449;28;20038;-74
2023/12/16 10:50:32;;;;;;;24.75;9.65;;;10.50;99.90;;;;;;4993750;28;20097;-74
2023/12/16 10:53:02;;;;;;;23.38;9.45;;;10.40;99.90;;;;;;4976364;28;20042;-74
2023/12/16 10:55:48;;;;;;;20.17;9.18;;;10.50;99.90;;;;;;4992726;28;20026;-75
2023/12/16 10:58:20;;;;;;;23.48;9.15;;;10.50;99.90;;;;;;4994541;28;20034;-74
2023/12/16 11:00:50;;;;;;;23.30;8.02;;;10.50;99.90;;;;;;4994694;28;20089;-75
2023/12/16 11:03:33;;;;;;;23.08;7.97;;;10.60;99.90;;;;;;4976322;28;20026;-74
2023/12/16 11:06:15;;;;;;;24.08;8.13;;;10.60;99.90;;;;;;4993072;28;20045;-75
2023/12/16 11:08:41;;;;;;;18.80;7.18;;;10.60;99.90;;;;;;4995419;28;20026;-75
2023/12/16 11:11:07;;;;;;;18.27;8.43;;;10.60;99.90;;;;;;4991637;28;20109;-76
2023/12/16 11:13:35;;;;;;;20.42;7.15;;;10.60;99.90;;;;;;4993437;28;20117;-75
2023/12/16 11:16:10;;;;;;;20.58;8.02;;;10.60;99.90;;;;;;4994842;28;20496;-75
2023/12/16 11:18:36;;;;;;;20.40;8.05;;;10.70;99.90;;;;;;4994709;28;20065;-74
2023/12/16 11:21:05;;;;;;;23.70;7.70;;;10.70;99.90;;;;;;4992109;28;20129;-74
2023/12/16 11:23:31;;;;;;;21.63;8.40;;;10.70;99.90;;;;;;4994654;28;20030;-75
2023/12/16 11:26:02;;;;;;;29.05;8.13;;;10.70;99.90;;;;;;4994566;28;20389;-74
2023/12/16 11:28:29;;;;;;;23.63;7.15;;;10.80;99.90;;;;;;4994856;28;20030;-77
2023/12/16 11:30:57;;;;;;;20.13;6.50;;;10.80;99.90;;;;;;4987858;28;20069;-77
2023/12/16 11:33:23;;;;;;;21.70;6.97;;;10.80;99.90;;;;;;4993172;28;20232;-75
2023/12/16 11:35:53;;;;;;;21.20;6.00;;;10.80;99.90;;;;;;4993238;28;20027;-75
2023/12/16 11:38:41;;;;;;;20.00;5.82;;;10.80;99.90;;;;;;4992816;28;20030;-75
2023/12/16 11:41:07;;;;;;;18.40;5.63;;;10.80;99.90;;;;;;4993560;28;20026;-74
2023/12/16 11:43:50;;;;;;;17.38;5.40;;;10.80;99.90;;;;;;4994320;28;20022;-74
2023/12/16 11:46:37;;;;;;;21.65;5.35;;;10.80;99.90;;;;;;4993599;28;20034;-72
2023/12/16 11:49:05;;;;;;;18.60;5.10;;;10.80;99.90;;;;;;4993172;28;20124;-74
2023/12/16 11:51:34;;;;;;;19.60;5.13;;;10.80;99.90;;;;;;4991063;28;20462;-75
2023/12/16 11:54:00;;;;;;;18.65;5.40;;;10.80;99.90;;;;;;4994375;28;20069;-75
2023/12/16 11:56:26;;;;;;;19.23;5.15;;;10.90;99.90;;;;;;4993285;28;20384;-75
2023/12/16 11:58:57;;;;;;;21.52;5.03;;;10.90;99.90;;;;;;4994156;28;20022;-75
2023/12/16 12:01:27;;;;;;;22.47;5.77;;;10.90;99.90;;;;;;4976144;28;20034;-75
2023/12/16 12:03:54;;;;;;;14.57;4.65;;;10.90;99.90;;;;;;4991665;28;20022;-75
2023/12/16 12:06:20;;;;;;;20.33;4.63;;;10.90;99.90;;;;;;4994003;28;20033;-74
2023/12/16 12:08:46;;;;;;;20.13;4.78;;;10.90;99.90;;;;;;4993050;28;20038;-73
2023/12/16 12:11:13;;;;;;;19.50;5.45;;;10.90;99.90;;;;;;4992833;28;20106;-75
2023/12/16 12:13:38;;;;;;;15.88;4.53;;;10.90;99.90;;;;;;4993397;28;20031;-75
2023/12/16 12:16:05;;;;;;;16.67;4.28;;;10.90;99.90;;;;;;4993063;28;20019;-74
2023/12/16 12:18:31;;;;;;;15.25;4.72;;;10.90;99.90;;;;;;4990820;28;20125;-75
2023/12/16 12:20:56;;;;;;;17.90;4.15;;;10.90;99.90;;;;;;4990436;28;20129;-74
2023/12/16 12:23:22;;;;;;;14.45;3.95;;;10.90;99.90;;;;;;4992895;28;20021;-75
2023/12/16 12:25:57;;;;;;;19.20;4.25;;;10.90;99.90;;;;;;4993623;28;20469;-75
2023/12/16 12:28:22;;;;;;;13.60;3.55;;;11.00;99.90;;;;;;4993100;28;20050;-76
2023/12/16 12:30:48;;;;;;;15.60;4.10;;;11.00;99.90;;;;;;4991573;28;20066;-75
2023/12/16 12:33:14;;;;;;;13.55;3.85;;;11.00;99.90;;;;;;4991904;28;20077;-75
2023/12/16 12:35:39;;;;;;;21.52;4.30;;;11.00;99.90;;;;;;4993203;28;20410;-74